KTMB

Miami Executive Airport

Miami, Florida, USA
METAR KTMB 191153Z 00000KT 10SM FEW021 26/24 A2995 RMK AO2 SLP140 T02560244 10278 20244 53012
Observed Flight Rules
Sep-19 @ 11:53 UTC (an hour ago) Visual Flight Rules
Visibility Clouds
10 miles
  • Few at 2,100' AGL
Temperatures Readings
Current 26°C / 79°F
Dewpoint 24°C / 75°F
Humidity 89%
Altimeter 29.95" Hg
Pressure 1014 hPa
Elevation 2
METAR KTMB 191153Z 00000KT 10SM FEW021 26/24 A2995 RMK AO2 SLP140 T02560244 10278 20244 53012
Observed Flight Rules
Sep-19 @ 11:53 UTC
(an hour ago)
VFR
Clouds
  • Few at 2,100' AGL
Temperature Dewpoint
26°C / 79°F 24°C / 75°F
Humidity Altimeter Pressure
89% 29.95" Hg 1014 hPa